| time (UTC) | temp F | wind direction | speed MPH | gust MPH | rain 1hr in | rain 24hr in | rain mn in | humidity % | barometer mb |
| 20260508053054 | 56 | 0 | 0.0 | 4.0 | 0.00 | 0.00 | 0.00 | 19 | 1016.8 |
| 20260508051553 | 57 | 0 | 0.0 | 2.0 | 0.00 | 0.00 | 0.00 | 18 | 1016.8 |
| 20260508050054 | 58 | 0 | 0.0 | 2.0 | 0.00 | 0.00 | 0.00 | 16 | 1016.9 |
| 20260508044559 | 58 | 0 | 1.0 | 3.0 | 0.00 | 0.00 | 0.00 | 15 | 1016.9 |
| 20260508043054 | 59 | 0 | 0.0 | 3.0 | 0.00 | 0.00 | 0.00 | 14 | 1016.8 |
| 20260508041553 | 59 | 0 | 0.0 | 3.0 | 0.00 | 0.00 | 0.00 | 14 | 1016.8 |
| 20260508040101 | 61 | 0 | 0.0 | 0.0 | 0.00 | 0.00 | 0.00 | 13 | 1016.7 |
| 20260508034556 | 63 | 0 | 0.0 | 2.0 | 0.00 | 0.00 | 0.00 | 13 | 1016.6 |
| 20260508033112 | 65 | 0 | 0.0 | 2.0 | 0.00 | 0.00 | 0.00 | 12 | 1016.4 |
| 20260508031556 | 66 | 291 | 1.0 | 5.0 | 0.00 | 0.00 | 0.00 | 11 | 1016.1 |
| 20260508030109 | 67 | 0 | 1.0 | 5.0 | 0.00 | 0.00 | 0.00 | 10 | 1016.0 |
| 20260508024619 | 68 | 0 | 0.0 | 5.0 | 0.00 | 0.00 | 0.00 | 10 | 1015.7 |
| 20260508023054 | 69 | 308 | 1.0 | 6.0 | 0.00 | 0.00 | 0.00 | 9 | 1015.5 |
| 20260508021554 | 70 | 305 | 1.0 | 8.0 | 0.00 | 0.00 | 0.00 | 8 | 1015.2 |
| 20260508020107 | 71 | 0 | 2.0 | 8.0 | 0.00 | 0.00 | 0.00 | 8 | 1015.1 |
| 20260508014609 | 72 | 325 | 2.0 | 5.0 | 0.00 | 0.00 | 0.00 | 8 | 1015.0 |
| 20260508013107 | 72 | 144 | 3.0 | 9.0 | 0.00 | 0.00 | 0.00 | 12 | 1014.7 |
| 20260508011600 | 74 | 157 | 5.0 | 10.0 | 0.00 | 0.00 | 0.00 | 12 | 1014.5 |
| 20260508010110 | 74 | 144 | 4.0 | 10.0 | 0.00 | 0.00 | 0.00 | 12 | 1014.4 |
| 20260508004553 | 75 | 143 | 4.0 | 12.0 | 0.00 | 0.00 | 0.00 | 12 | 1014.4 |
| 20260508003058 | 75 | 146 | 6.0 | 14.0 | 0.00 | 0.00 | 0.00 | 11 | 1014.3 |
| 20260508001556 | 75 | 142 | 6.0 | 12.0 | 0.00 | 0.00 | 0.00 | 11 | 1014.3 |
| 20260508000101 | 75 | 184 | 7.0 | 18.0 | 0.00 | 0.00 | 0.00 | 10 | 1014.4 |
| 20260507234602 | 76 | 141 | 5.0 | 13.0 | 0.00 | 0.00 | 0.00 | 10 | 1014.5 |
| 20260507233057 | 75 | 0 | 5.0 | 13.0 | 0.00 | 0.00 | 0.00 | 11 | 1014.7 |
| 20260507231603 | 76 | 186 | 6.0 | 14.0 | 0.00 | 0.00 | 0.00 | 10 | 1015.0 |
| 20260507230056 | 76 | 132 | 7.0 | 15.0 | 0.00 | 0.00 | 0.00 | 10 | 1015.1 |
| 20260507224553 | 76 | 120 | 3.0 | 12.0 | 0.00 | 0.00 | 0.00 | 11 | 1015.3 |
| 20260507223057 | 75 | 121 | 5.0 | 12.0 | 0.00 | 0.00 | 0.00 | 11 | 1015.4 |
| 20260507221559 | 74 | 240 | 6.0 | 14.0 | 0.00 | 0.00 | 0.00 | 11 | 1015.5 |
| 20260507220054 | 75 | 178 | 6.0 | 14.0 | 0.00 | 0.00 | 0.00 | 11 | 1015.6 |
| 20260507214556 | 74 | 135 | 4.0 | 12.0 | 0.00 | 0.00 | 0.00 | 13 | 1016.0 |
| 20260507213059 | 74 | 155 | 6.0 | 11.0 | 0.00 | 0.00 | 0.00 | 13 | 1016.2 |
| 20260507211603 | 74 | 136 | 4.0 | 12.0 | 0.00 | 0.00 | 0.00 | 14 | 1016.6 |
| 20260507210055 | 74 | 0 | 4.0 | 11.0 | 0.00 | 0.00 | 0.00 | 15 | 1016.9 |
| 20260507204602 | 73 | 134 | 6.0 | 12.0 | 0.00 | 0.00 | 0.00 | 16 | 1017.4 |
| 20260507203056 | 72 | 164 | 4.0 | 10.0 | 0.00 | 0.00 | 0.00 | 16 | 1017.7 |
| 20260507201557 | 72 | 127 | 6.0 | 12.0 | 0.00 | 0.00 | 0.00 | 17 | 1018.0 |
| 20260507200100 | 72 | 145 | 2.0 | 8.0 | 0.00 | 0.00 | 0.00 | 17 | 1018.2 |
| 20260507194613 | 69 | 98 | 4.0 | 12.0 | 0.00 | 0.00 | 0.00 | 18 | 1018.5 |
| 20260507193100 | 70 | 211 | 2.0 | 8.0 | 0.00 | 0.00 | 0.00 | 18 | 1018.7 |
| 20260507191604 | 68 | 157 | 3.0 | 10.0 | 0.00 | 0.00 | 0.00 | 20 | 1019.1 |
| 20260507190059 | 69 | 181 | 2.0 | 8.0 | 0.00 | 0.00 | 0.00 | 19 | 1019.3 |
| 20260507184609 | 67 | 0 | 1.0 | 6.0 | 0.00 | 0.00 | 0.00 | 19 | 1019.7 |
| 20260507183104 | 67 | 0 | 0.0 | 5.0 | 0.00 | 0.00 | 0.00 | 22 | 1019.9 |
| 20260507181555 | 67 | 187 | 3.0 | 7.0 | 0.00 | 0.00 | 0.00 | 21 | 1020.1 |
| 20260507180059 | 66 | 0 | 2.0 | 5.0 | 0.00 | 0.00 | 0.00 | 22 | 1020.4 |
| 20260507174602 | 65 | 352 | 2.0 | 7.0 | 0.00 | 0.00 | 0.00 | 24 | 1020.6 |
| 20260507173100 | 63 | 119 | 2.0 | 8.0 | 0.00 | 0.00 | 0.00 | 25 | 1021.0 |
| 20260507171554 | 63 | 331 | 2.0 | 6.0 | 0.00 | 0.00 | 0.00 | 27 | 1021.3 |
| 20260507170058 | 62 | 53 | 2.0 | 10.0 | 0.00 | 0.00 | 0.00 | 27 | 1021.5 |
| 20260507164553 | 60 | 36 | 3.0 | 11.0 | 0.00 | 0.00 | 0.00 | 33 | 1021.6 |
| 20260507163058 | 59 | 338 | 3.0 | 11.0 | 0.00 | 0.00 | 0.00 | 35 | 1021.8 |
| 20260507161558 | 58 | 55 | 3.0 | 13.0 | 0.00 | 0.00 | 0.00 | 38 | 1021.9 |
| 20260507160053 | 56 | 360 | 2.0 | 10.0 | 0.00 | 0.00 | 0.00 | 40 | 1022.1 |
| 20260507154555 | 55 | 26 | 4.0 | 9.0 | 0.00 | 0.00 | 0.00 | 42 | 1022.2 |
| 20260507153105 | 53 | 14 | 4.0 | 12.0 | 0.00 | 0.00 | 0.00 | 45 | 1022.3 |
| 20260507151554 | 52 | 338 | 4.0 | 12.0 | 0.00 | 0.00 | 0.00 | 47 | 1022.4 |
| 20260507150058 | 51 | 35 | 3.0 | 15.0 | 0.00 | 0.00 | 0.00 | 50 | 1022.5 |
| 20260507144556 | 50 | 27 | 3.0 | 12.0 | 0.00 | 0.00 | 0.00 | 53 | 1022.5 |
| 20260507143104 | 49 | 344 | 5.0 | 13.0 | 0.00 | 0.00 | 0.00 | 55 | 1022.7 |
| 20260507141557 | 48 | 360 | 4.0 | 14.0 | 0.00 | 0.00 | 0.00 | 57 | 1022.7 |
| 20260507134555 | 45 | 5 | 5.0 | 17.0 | 0.00 | 0.00 | 0.00 | 62 | 1022.7 |
| 20260507133053 | 44 | 337 | 5.0 | 14.0 | 0.00 | 0.00 | 0.00 | 60 | 1022.7 |
| 20260507131553 | 43 | 327 | 5.0 | 13.0 | 0.00 | 0.00 | 0.00 | 63 | 1022.6 |
| 20260507124558 | 40 | 352 | 3.0 | 10.0 | 0.00 | 0.00 | 0.00 | 68 | 1022.5 |
| 20260507123056 | 40 | 337 | 2.0 | 7.0 | 0.00 | 0.00 | 0.00 | 67 | 1022.3 |
| 20260507121600 | 40 | 360 | 4.0 | 9.0 | 0.00 | 0.00 | 0.00 | 67 | 1022.3 |
| 20260507120058 | 40 | 352 | 0.0 | 6.0 | 0.00 | 0.00 | 0.00 | 65 | 1022.2 |
| 20260507114552 | 41 | 311 | 0.0 | 6.0 | 0.00 | 0.00 | 0.00 | 64 | 1022.2 |
| 20260507113100 | 41 | 360 | 1.0 | 6.0 | 0.00 | 0.00 | 0.00 | 63 | 1022.1 |
| 20260507111557 | 41 | 5 | 1.0 | 5.0 | 0.00 | 0.00 | 0.00 | 60 | 1022.1 |
| 20260507104602 | 41 | 30 | 1.0 | 4.0 | 0.00 | 0.00 | 0.00 | 56 | 1022.2 |
| 20260507103128 | 41 | 0 | 0.0 | 5.0 | 0.00 | 0.00 | 0.00 | 52 | 1022.0 |
| 20260507101554 | 41 | 0 | 0.0 | 1.0 | 0.00 | 0.00 | 0.00 | 45 | 1022.0 |
| 20260507100106 | 42 | 0 | 0.0 | 3.0 | 0.00 | 0.00 | 0.00 | 42 | 1022.0 |
| 20260507094556 | 42 | 331 | 1.0 | 3.0 | 0.00 | 0.00 | 0.00 | 40 | 1021.8 |
| 20260507093053 | 43 | 360 | 0.0 | 3.0 | 0.00 | 0.00 | 0.00 | 37 | 1021.8 |
| 20260507091552 | 45 | 0 | 0.0 | 3.0 | 0.00 | 0.00 | 0.00 | 34 | 1021.8 |
| 20260507090059 | 45 | 57 | 1.0 | 9.0 | 0.00 | 0.00 | 0.00 | 33 | 1021.7 |
| 20260507084604 | 45 | 360 | 4.0 | 9.0 | 0.00 | 0.00 | 0.00 | 34 | 1021.7 |
| 20260507083052 | 45 | 328 | 1.0 | 6.0 | 0.00 | 0.00 | 0.00 | 34 | 1021.6 |
| 20260507081558 | 45 | 38 | 1.0 | 5.0 | 0.00 | 0.00 | 0.00 | 34 | 1021.6 |
| 20260507080057 | 47 | 0 | 0.0 | 5.0 | 0.00 | 0.00 | 0.00 | 32 | 1021.4 |
| 20260507074552 | 49 | 334 | 2.0 | 9.0 | 0.00 | 0.00 | 0.00 | 29 | 1021.0 |
| 20260507073052 | 49 | 336 | 3.0 | 9.0 | 0.00 | 0.00 | 0.00 | 29 | 1020.9 |
| 20260507071559 | 49 | 277 | 4.0 | 9.0 | 0.00 | 0.00 | 0.00 | 29 | 1020.8 |
| 20260507070106 | 49 | 311 | 3.0 | 6.0 | 0.00 | 0.00 | 0.00 | 30 | 1020.8 |
| 20260507064557 | 50 | 319 | 3.0 | 7.0 | 0.00 | 0.00 | 0.00 | 29 | 1020.8 |
| 20260507063051 | 50 | 335 | 1.0 | 8.0 | 0.00 | 0.00 | 0.00 | 29 | 1020.8 |
| 20260507061554 | 50 | 344 | 4.0 | 9.0 | 0.00 | 0.00 | 0.00 | 30 | 1020.7 |
| 20260507060101 | 51 | 343 | 3.0 | 8.0 | 0.00 | 0.00 | 0.00 | 30 | 1020.6 |
| 20260507054612 | 51 | 341 | 2.0 | 6.0 | 0.00 | 0.00 | 0.00 | 30 | 1020.6 |